createdAt,value
2018-12-27T00:00:31.587Z,20.33
2018-12-27T00:03:04.362Z,20.33
2018-12-27T00:05:36.379Z,20.36
2018-12-27T00:08:08.054Z,20.35
2018-12-27T00:10:39.779Z,20.32
2018-12-27T00:13:11.722Z,20.33
2018-12-27T00:15:42.611Z,20.32
2018-12-27T00:18:14.775Z,20.27
2018-12-27T00:20:46.806Z,20.27
2018-12-27T00:23:19.298Z,20.31
2018-12-27T00:25:51.116Z,20.31
2018-12-27T00:28:22.754Z,20.30
2018-12-27T00:30:54.256Z,20.28
2018-12-27T00:33:27.262Z,20.28
2018-12-27T00:35:59.727Z,20.27
2018-12-27T00:38:31.994Z,20.26
2018-12-27T00:41:04.363Z,20.25
2018-12-27T00:43:36.813Z,20.24
2018-12-27T00:46:09.265Z,20.22
2018-12-27T00:48:42.307Z,20.21
2018-12-27T00:51:15.315Z,20.22
2018-12-27T00:53:47.770Z,20.21
2018-12-27T00:56:18.763Z,20.20
2018-12-27T00:58:51.307Z,20.19
2018-12-27T01:01:23.835Z,20.18
2018-12-27T01:03:56.290Z,20.18
2018-12-27T01:06:28.758Z,20.18
2018-12-27T01:08:59.783Z,20.18
2018-12-27T01:11:31.935Z,20.16
2018-12-27T01:14:04.332Z,20.16
2018-12-27T01:16:36.804Z,20.16
2018-12-27T01:19:09.574Z,20.15
2018-12-27T01:21:41.584Z,20.15
2018-12-27T01:24:14.707Z,20.15
2018-12-27T01:26:46.116Z,20.15
2018-12-27T01:29:18.774Z,20.16
2018-12-27T01:31:51.694Z,20.15
2018-12-27T01:34:22.747Z,20.14
2018-12-27T01:36:54.792Z,20.14
2018-12-27T01:39:27.391Z,20.14
2018-12-27T01:42:00.303Z,20.13
2018-12-27T01:44:32.886Z,20.13
2018-12-27T01:47:05.758Z,20.12
2018-12-27T01:49:38.266Z,20.11
2018-12-27T01:52:11.140Z,20.11
2018-12-27T01:54:44.306Z,20.12
2018-12-27T01:57:16.841Z,20.13
2018-12-27T01:59:49.383Z,20.13
2018-12-27T02:02:22.338Z,20.14
2018-12-27T02:04:55.361Z,20.15
2018-12-27T02:07:28.305Z,20.16
2018-12-27T02:10:00.865Z,20.17
2018-12-27T02:12:33.906Z,20.16
2018-12-27T02:15:06.763Z,20.15
2018-12-27T02:17:38.829Z,20.14
2018-12-27T02:20:10.949Z,20.14
2018-12-27T02:22:43.319Z,20.14
2018-12-27T02:25:15.815Z,20.13
2018-12-27T02:27:47.855Z,20.13
2018-12-27T02:30:20.030Z,20.10
2018-12-27T02:32:52.495Z,20.10
2018-12-27T02:35:24.837Z,20.10
2018-12-27T02:37:57.494Z,20.09
2018-12-27T02:40:29.926Z,20.09
2018-12-27T02:43:02.840Z,20.08
2018-12-27T02:45:35.071Z,20.08
2018-12-27T02:48:07.483Z,20.06
2018-12-27T02:50:39.781Z,20.06
2018-12-27T02:53:11.967Z,20.05
2018-12-27T02:55:44.314Z,20.05
2018-12-27T02:58:17.318Z,20.03
2018-12-27T03:00:50.083Z,20.02
2018-12-27T03:03:22.884Z,20.01
2018-12-27T03:05:55.307Z,20.01
2018-12-27T03:08:28.061Z,19.99
2018-12-27T03:11:01.018Z,20.01
2018-12-27T03:13:33.347Z,19.98
2018-12-27T03:16:05.810Z,19.98
2018-12-27T03:18:38.041Z,19.98
2018-12-27T03:21:10.831Z,19.97
2018-12-27T03:23:43.040Z,19.96
2018-12-27T03:26:15.807Z,19.95
2018-12-27T03:28:48.008Z,19.95
2018-12-27T03:31:20.506Z,19.95
2018-12-27T03:33:53.096Z,19.95
2018-12-27T03:36:26.038Z,19.94
2018-12-27T03:38:58.835Z,19.95
2018-12-27T03:41:31.421Z,19.94
2018-12-27T03:44:03.991Z,19.93
2018-12-27T03:46:36.512Z,19.92
2018-12-27T03:49:08.761Z,19.92
2018-12-27T03:51:39.940Z,19.92
2018-12-27T03:54:12.271Z,19.91
2018-12-27T03:56:45.375Z,19.92
2018-12-27T03:59:19.119Z,19.93
2018-12-27T04:01:52.304Z,19.91
2018-12-27T04:04:24.819Z,19.91
2018-12-27T04:06:57.134Z,19.92
2018-12-27T04:09:30.902Z,19.91
2018-12-27T04:12:03.756Z,19.91
2018-12-27T04:14:34.762Z,19.90
2018-12-27T04:17:06.643Z,19.89
2018-12-27T04:19:38.799Z,19.88
2018-12-27T04:22:10.395Z,19.88
2018-12-27T04:24:42.309Z,19.87
2018-12-27T04:27:14.108Z,19.88
2018-12-27T04:29:45.826Z,19.87
2018-12-27T04:32:17.940Z,19.87
2018-12-27T04:34:49.787Z,19.87
2018-12-27T04:37:21.772Z,19.86
2018-12-27T04:39:52.467Z,19.85
2018-12-27T04:42:24.327Z,19.85
2018-12-27T04:44:57.071Z,19.83
2018-12-27T04:47:29.305Z,19.83
2018-12-27T04:50:01.807Z,19.82
2018-12-27T04:52:33.757Z,19.81
2018-12-27T04:55:04.464Z,19.80
2018-12-27T04:57:36.416Z,19.79
2018-12-27T05:00:09.313Z,19.80
2018-12-27T05:02:41.320Z,19.78
2018-12-27T05:05:13.073Z,19.78
2018-12-27T05:07:45.630Z,19.77
2018-12-27T05:10:17.792Z,19.76
2018-12-27T05:12:49.773Z,19.76
2018-12-27T05:15:20.506Z,19.76
2018-12-27T05:17:52.818Z,19.74
2018-12-27T05:20:24.504Z,19.74
2018-12-27T05:22:57.271Z,19.75
2018-12-27T05:25:32.719Z,19.74
2018-12-27T05:28:03.881Z,19.74
2018-12-27T05:30:35.727Z,19.74
2018-12-27T05:33:06.863Z,19.76
2018-12-27T05:35:38.870Z,19.77
2018-12-27T05:38:10.819Z,19.75
2018-12-27T05:40:43.310Z,19.78
2018-12-27T05:43:15.002Z,19.82
2018-12-27T05:45:46.753Z,19.84
2018-12-27T05:48:18.546Z,19.86
2018-12-27T05:50:50.386Z,19.86
2018-12-27T05:53:23.029Z,19.86
2018-12-27T05:55:54.739Z,19.93
2018-12-27T05:58:26.500Z,19.95
2018-12-27T06:00:58.345Z,19.96
2018-12-27T06:03:30.308Z,19.96
2018-12-27T06:06:02.498Z,19.97
2018-12-27T06:08:34.306Z,19.97
2018-12-27T06:11:06.272Z,19.96
2018-12-27T06:13:38.044Z,19.96
2018-12-27T06:16:09.842Z,19.96
2018-12-27T06:18:41.402Z,19.97
2018-12-27T06:21:13.866Z,19.95
2018-12-27T06:23:45.974Z,19.94
2018-12-27T06:26:20.282Z,19.93
2018-12-27T06:28:52.311Z,19.92
2018-12-27T06:31:24.426Z,19.93
2018-12-27T06:33:56.062Z,19.91
2018-12-27T06:36:27.793Z,19.89
2018-12-27T06:38:58.535Z,19.89
2018-12-27T06:41:30.314Z,19.89
2018-12-27T06:44:02.075Z,19.88
2018-12-27T06:46:33.851Z,19.86
2018-12-27T06:49:05.767Z,19.85
2018-12-27T06:51:36.644Z,19.84
2018-12-27T06:54:08.450Z,19.74
2018-12-27T06:56:40.282Z,19.74
2018-12-27T06:59:12.002Z,19.81
2018-12-27T07:01:44.728Z,19.80
2018-12-27T07:04:15.706Z,19.80
2018-12-27T07:06:47.270Z,19.79
2018-12-27T07:09:19.281Z,19.78
2018-12-27T07:11:51.302Z,19.78
2018-12-27T07:14:22.985Z,19.79
2018-12-27T07:16:54.766Z,19.79
2018-12-27T07:19:26.269Z,19.78
2018-12-27T07:21:57.947Z,19.78
2018-12-27T07:24:29.814Z,19.79
2018-12-27T07:27:02.054Z,19.79
2018-12-27T07:29:33.823Z,19.79
2018-12-27T07:32:05.763Z,19.80
2018-12-27T07:34:36.946Z,19.80
2018-12-27T07:37:08.782Z,19.80
2018-12-27T07:39:40.787Z,19.81
2018-12-27T07:42:12.786Z,19.81
2018-12-27T07:44:43.527Z,19.81
2018-12-27T07:47:15.272Z,19.82
2018-12-27T07:49:47.358Z,19.81
2018-12-27T07:52:19.690Z,19.81
2018-12-27T07:54:50.531Z,19.80
2018-12-27T07:57:22.317Z,19.80
2018-12-27T07:59:56.648Z,19.80
2018-12-27T08:02:29.354Z,19.79
2018-12-27T08:05:04.242Z,19.79
2018-12-27T08:07:36.305Z,19.79
2018-12-27T08:10:08.882Z,19.78
2018-12-27T08:12:40.777Z,19.76
2018-12-27T08:15:11.612Z,19.76
2018-12-27T08:17:42.940Z,19.77
2018-12-27T08:20:14.876Z,19.76
2018-12-27T08:22:46.765Z,19.75
2018-12-27T08:25:17.678Z,19.74
2018-12-27T08:27:48.622Z,19.72
2018-12-27T08:30:20.526Z,19.72
2018-12-27T08:32:52.762Z,19.72
2018-12-27T08:35:23.529Z,19.72
2018-12-27T08:37:55.277Z,19.71
2018-12-27T08:40:29.020Z,19.71
2018-12-27T08:43:00.749Z,19.71
2018-12-27T08:45:31.657Z,19.70
2018-12-27T08:48:03.789Z,19.70
2018-12-27T08:50:35.828Z,19.70
2018-12-27T08:53:07.725Z,19.69
2018-12-27T08:55:39.781Z,19.69
2018-12-27T08:58:10.626Z,19.68
2018-12-27T09:00:42.642Z,19.66
2018-12-27T09:03:14.771Z,19.67
2018-12-27T09:05:46.769Z,19.67
2018-12-27T09:08:18.797Z,19.67
2018-12-27T09:10:50.775Z,19.66
2018-12-27T09:13:21.630Z,19.66
2018-12-27T09:15:54.328Z,19.67
2018-12-27T09:18:26.332Z,19.67
2018-12-27T09:20:58.816Z,19.69
2018-12-27T09:23:32.889Z,19.70
2018-12-27T09:26:04.768Z,19.71
2018-12-27T09:28:35.494Z,19.71
2018-12-27T09:31:07.298Z,19.72
2018-12-27T09:33:39.420Z,19.73
2018-12-27T09:36:11.315Z,19.75
2018-12-27T09:38:43.270Z,19.77
2018-12-27T09:41:15.307Z,19.80
2018-12-27T09:43:46.991Z,19.82
2018-12-27T09:46:18.761Z,19.83
2018-12-27T09:48:50.079Z,19.86
2018-12-27T09:51:21.807Z,19.88
2018-12-27T09:53:53.662Z,19.88
2018-12-27T09:56:25.415Z,19.87
2018-12-27T09:58:57.756Z,19.87
2018-12-27T10:01:29.848Z,19.88
2018-12-27T10:04:01.786Z,19.87
2018-12-27T10:06:33.743Z,19.89
2018-12-27T10:09:06.299Z,19.89
2018-12-27T10:11:38.015Z,19.89
2018-12-27T10:14:10.058Z,19.86
2018-12-27T10:16:42.259Z,19.87
2018-12-27T10:19:13.872Z,19.85
2018-12-27T10:21:45.814Z,19.86
2018-12-27T10:24:17.863Z,19.85
2018-12-27T10:26:49.815Z,19.82
2018-12-27T10:29:21.739Z,19.83
2018-12-27T10:31:54.888Z,19.82
2018-12-27T10:34:28.399Z,19.82
2018-12-27T10:37:00.388Z,19.81
2018-12-27T10:39:32.307Z,19.80
2018-12-27T10:42:04.374Z,19.80
2018-12-27T10:44:36.313Z,19.81
2018-12-27T10:47:08.483Z,19.78
2018-12-27T10:49:40.059Z,19.78
2018-12-27T10:52:11.820Z,19.78
2018-12-27T10:54:43.449Z,19.78
2018-12-27T10:57:15.643Z,19.77
2018-12-27T10:59:47.373Z,19.77
2018-12-27T11:02:19.307Z,19.77
2018-12-27T11:04:50.976Z,19.76
2018-12-27T11:07:23.844Z,19.77
2018-12-27T11:09:56.877Z,19.76
2018-12-27T11:12:28.790Z,19.77
2018-12-27T11:15:00.795Z,19.76
2018-12-27T11:17:32.811Z,19.76
2018-12-27T11:20:04.757Z,19.75
2018-12-27T11:22:36.397Z,19.75
2018-12-27T11:25:08.107Z,19.74
2018-12-27T11:27:39.849Z,19.75
2018-12-27T11:30:12.308Z,19.75
2018-12-27T11:32:44.558Z,19.74
2018-12-27T11:35:16.265Z,19.74
2018-12-27T11:37:48.378Z,19.76
2018-12-27T11:40:20.302Z,19.76
2018-12-27T11:42:52.306Z,19.75
2018-12-27T11:45:23.983Z,19.75
2018-12-27T11:47:56.163Z,19.76
2018-12-27T11:50:28.307Z,19.78
2018-12-27T11:53:00.303Z,19.78
2018-12-27T11:55:32.306Z,19.77
2018-12-27T11:58:04.705Z,19.76
2018-12-27T12:00:36.681Z,19.77
2018-12-27T12:03:07.684Z,19.77
2018-12-27T12:05:39.288Z,19.78
2018-12-27T12:08:11.999Z,19.78
2018-12-27T12:10:43.718Z,19.76
2018-12-27T12:13:14.497Z,19.75
2018-12-27T12:15:46.307Z,19.75
2018-12-27T12:18:18.754Z,19.75
2018-12-27T12:20:49.949Z,19.74
2018-12-27T12:23:21.783Z,19.73
2018-12-27T12:25:53.343Z,19.73
2018-12-27T12:28:25.837Z,19.72
2018-12-27T12:30:57.479Z,19.71
2018-12-27T12:33:30.297Z,19.71
2018-12-27T12:36:02.763Z,19.69
2018-12-27T12:38:33.652Z,19.67
2018-12-27T12:41:06.304Z,19.68
2018-12-27T12:43:38.010Z,19.68
2018-12-27T12:46:12.375Z,19.67
2018-12-27T12:48:44.835Z,19.68
2018-12-27T12:51:16.708Z,19.67
2018-12-27T12:53:47.548Z,19.66
2018-12-27T12:56:19.709Z,19.58
2018-12-27T12:58:50.720Z,19.58
2018-12-27T13:01:21.486Z,19.70
2018-12-27T13:03:53.183Z,19.69
2018-12-27T13:06:25.575Z,19.70
2018-12-27T13:08:57.363Z,19.73
2018-12-27T13:11:30.219Z,19.73
2018-12-27T13:14:02.299Z,19.72
2018-12-27T13:16:33.850Z,19.73
2018-12-27T13:19:05.777Z,19.73
2018-12-27T13:21:38.566Z,19.74
2018-12-27T13:24:11.317Z,19.65
2018-12-27T13:26:43.902Z,19.65
2018-12-27T13:29:15.730Z,19.75
2018-12-27T13:31:46.543Z,19.74
2018-12-27T13:34:18.407Z,19.75
2018-12-27T13:36:50.683Z,19.75
2018-12-27T13:39:22.235Z,19.74
2018-12-27T13:41:53.995Z,19.74
2018-12-27T13:44:25.803Z,19.72
2018-12-27T13:46:57.798Z,19.72
2018-12-27T13:49:29.763Z,19.71
2018-12-27T13:52:00.604Z,19.69
2018-12-27T13:54:32.391Z,19.69
2018-12-27T13:57:04.262Z,19.69
2018-12-27T13:59:35.911Z,19.68
2018-12-27T14:02:08.423Z,19.67
2018-12-27T14:04:40.895Z,19.67
2018-12-27T14:07:13.064Z,19.66
2018-12-27T14:09:46.993Z,19.65
2018-12-27T14:12:18.802Z,19.65
2018-12-27T14:14:50.625Z,19.63
2018-12-27T14:17:22.377Z,19.62
2018-12-27T14:19:54.305Z,19.62
2018-12-27T14:22:25.849Z,19.61
2018-12-27T14:24:58.812Z,19.61
2018-12-27T14:27:30.675Z,19.61
2018-12-27T14:30:01.493Z,19.62
2018-12-27T14:32:33.296Z,19.61
2018-12-27T14:35:05.313Z,19.61
2018-12-27T14:37:37.320Z,19.60
2018-12-27T14:40:11.466Z,19.60
2018-12-27T14:42:43.393Z,19.61
2018-12-27T14:45:15.546Z,19.63
2018-12-27T14:47:47.570Z,19.62
2018-12-27T14:50:19.969Z,19.64
2018-12-27T14:52:51.815Z,19.64
2018-12-27T14:55:23.674Z,19.72
2018-12-27T14:57:55.469Z,19.70
2018-12-27T15:00:27.300Z,19.70
2018-12-27T15:02:59.306Z,19.87
2018-12-27T15:05:31.295Z,20.84
2018-12-27T15:08:03.249Z,25.40
2018-12-27T15:10:34.870Z,31.28
2018-12-27T15:13:06.891Z,35.23
2018-12-27T15:15:39.294Z,37.56
2018-12-27T15:18:11.055Z,38.93
2018-12-27T15:20:42.746Z,39.98
2018-12-27T15:23:14.399Z,40.79
2018-12-27T15:25:47.308Z,41.29
2018-12-27T15:28:19.304Z,41.47
2018-12-27T15:30:51.300Z,41.63
2018-12-27T15:33:23.003Z,41.91
2018-12-27T15:35:55.156Z,42.08
2018-12-27T15:38:27.302Z,42.03
2018-12-27T15:41:00.308Z,41.59
2018-12-27T15:43:32.334Z,40.76
2018-12-27T15:46:04.075Z,39.69
2018-12-27T15:48:36.489Z,38.56
2018-12-27T15:51:08.359Z,37.41
2018-12-27T15:53:40.452Z,36.27
2018-12-27T15:56:12.300Z,35.22
2018-12-27T15:58:44.063Z,34.20
2018-12-27T16:01:15.798Z,33.29
2018-12-27T16:03:47.555Z,32.44
2018-12-27T16:06:19.056Z,31.65
2018-12-27T16:08:50.460Z,30.25
2018-12-27T16:11:22.608Z,30.25
2018-12-27T16:13:54.351Z,28.94
2018-12-27T16:16:26.382Z,28.94
2018-12-27T16:18:58.783Z,28.43
2018-12-27T16:21:30.799Z,27.89
2018-12-27T16:24:02.613Z,27.42
2018-12-27T16:26:34.408Z,26.56
2018-12-27T16:29:06.383Z,26.56
2018-12-27T16:31:38.300Z,26.17
2018-12-27T16:34:10.010Z,25.80
2018-12-27T16:36:41.764Z,25.47
2018-12-27T16:39:13.640Z,25.17
2018-12-27T16:41:45.786Z,24.59
2018-12-27T16:44:17.747Z,24.59
2018-12-27T16:46:49.764Z,24.34
2018-12-27T16:49:31.332Z,24.10
2018-12-27T16:52:03.302Z,23.91
2018-12-27T16:54:34.921Z,23.87
2018-12-27T16:57:06.875Z,24.38
2018-12-27T16:59:38.742Z,25.14
2018-12-27T17:02:09.527Z,25.98
2018-12-27T17:04:42.313Z,27.23
2018-12-27T17:07:16.174Z,28.81
2018-12-27T17:09:47.374Z,30.34
2018-12-27T17:12:19.486Z,31.67
2018-12-27T17:14:52.301Z,32.78
2018-12-27T17:17:23.996Z,33.71
2018-12-27T17:19:55.762Z,34.43
2018-12-27T17:22:26.497Z,34.56
2018-12-27T17:24:58.459Z,34.13
2018-12-27T17:27:36.411Z,33.46
2018-12-27T17:30:08.795Z,32.71
2018-12-27T17:32:40.851Z,31.88
2018-12-27T17:35:12.764Z,31.08
2018-12-27T17:37:43.498Z,30.36
2018-12-27T17:40:15.323Z,29.70
2018-12-27T17:42:47.373Z,29.07
2018-12-27T17:45:19.754Z,28.48
2018-12-27T17:47:55.472Z,27.92
2018-12-27T17:50:27.310Z,27.40
2018-12-27T17:52:58.995Z,26.90
2018-12-27T17:55:30.746Z,26.47
2018-12-27T17:58:02.450Z,26.05
2018-12-27T18:00:34.257Z,25.68
2018-12-27T18:03:11.837Z,25.35
2018-12-27T18:05:43.610Z,25.02
2018-12-27T18:08:15.825Z,24.40
2018-12-27T18:10:47.792Z,24.40
2018-12-27T18:13:19.425Z,24.22
2018-12-27T18:15:51.311Z,24.47
2018-12-27T18:18:23.034Z,25.65
2018-12-27T18:20:54.739Z,26.87
2018-12-27T18:23:26.810Z,27.69
2018-12-27T18:25:59.419Z,28.41
2018-12-27T18:28:31.783Z,29.48
2018-12-27T18:31:03.796Z,31.12
2018-12-27T18:33:35.555Z,32.55
2018-12-27T18:36:07.304Z,32.93
2018-12-27T18:38:39.315Z,32.63
2018-12-27T18:41:11.061Z,32.08
2018-12-27T18:43:45.887Z,31.43
2018-12-27T18:46:17.822Z,30.78
2018-12-27T18:48:49.801Z,30.10
2018-12-27T18:51:21.760Z,29.49
2018-12-27T18:53:53.761Z,28.89
2018-12-27T18:56:25.851Z,28.34
2018-12-27T18:58:57.807Z,27.84
2018-12-27T19:01:30.073Z,27.35
2018-12-27T19:04:01.808Z,26.90
2018-12-27T19:06:33.652Z,26.50
2018-12-27T19:09:07.323Z,25.69
2018-12-27T19:12:52.761Z,25.69
2018-12-27T19:15:29.667Z,25.45
2018-12-27T19:18:11.460Z,27.20
2018-12-27T19:20:46.763Z,29.04
2018-12-27T19:23:20.634Z,30.79
2018-12-27T19:25:51.498Z,32.88
2018-12-27T19:28:23.359Z,32.88
2018-12-27T19:30:55.267Z,32.86
2018-12-27T19:33:27.314Z,32.38
2018-12-27T19:35:59.767Z,31.75
2018-12-27T19:38:31.390Z,31.03
2018-12-27T19:41:03.498Z,30.31
2018-12-27T19:43:37.149Z,29.64
2018-12-27T19:46:11.033Z,28.99
2018-12-27T19:48:43.310Z,28.40
2018-12-27T19:51:14.862Z,27.71
2018-12-27T19:53:46.742Z,27.24
2018-12-27T19:56:17.730Z,26.81
2018-12-27T19:58:49.754Z,26.38
2018-12-27T20:01:20.843Z,26.01
2018-12-27T20:03:52.778Z,25.62
2018-12-27T20:06:24.829Z,25.35
2018-12-27T20:08:56.794Z,25.26
2018-12-27T20:11:28.851Z,25.05
2018-12-27T20:14:00.757Z,24.82
2018-12-27T20:16:31.472Z,24.57
2018-12-27T20:19:03.784Z,24.35
2018-12-27T20:21:35.830Z,24.06
2018-12-27T20:24:07.379Z,23.90
2018-12-27T20:26:39.805Z,23.72
2018-12-27T20:29:11.824Z,23.54
2018-12-27T20:31:44.308Z,23.37
2018-12-27T20:34:16.266Z,23.23
2018-12-27T20:36:48.786Z,23.07
2018-12-27T20:39:20.778Z,22.89
2018-12-27T20:41:51.655Z,22.76
2018-12-27T20:44:23.784Z,22.49
2018-12-27T20:46:55.804Z,22.49
2018-12-27T20:49:27.760Z,22.39
2018-12-27T20:51:59.889Z,22.30
2018-12-27T20:54:31.817Z,22.20
2018-12-27T20:57:03.793Z,22.09
2018-12-27T20:59:35.799Z,22.01
2018-12-27T21:02:08.058Z,21.94
2018-12-27T21:04:40.513Z,21.83
2018-12-27T21:07:12.826Z,21.73
2018-12-27T21:09:44.871Z,21.65
2018-12-27T21:12:17.308Z,21.56
2018-12-27T21:14:49.400Z,21.47
2018-12-27T21:17:21.892Z,21.40
2018-12-27T21:19:53.877Z,21.35
2018-12-27T21:22:25.824Z,21.31
2018-12-27T21:24:58.206Z,21.26
2018-12-27T21:27:30.326Z,21.23
2018-12-27T21:30:02.300Z,21.18
2018-12-27T21:32:34.315Z,21.15
2018-12-27T21:35:06.307Z,21.12
2018-12-27T21:37:38.437Z,21.09
2018-12-27T21:40:10.466Z,21.07
2018-12-27T21:42:42.718Z,21.04
2018-12-27T21:45:14.251Z,21.01
2018-12-27T21:47:46.305Z,20.98
2018-12-27T21:50:19.827Z,20.96
2018-12-27T21:52:51.800Z,20.95
2018-12-27T21:55:23.862Z,20.92
2018-12-27T21:57:55.778Z,20.89
2018-12-27T22:00:27.997Z,20.86
2018-12-27T22:02:59.803Z,20.85
2018-12-27T22:05:31.781Z,20.82
2018-12-27T22:08:03.777Z,20.80
2018-12-27T22:10:35.784Z,20.78
2018-12-27T22:13:08.301Z,20.77
2018-12-27T22:15:40.397Z,20.72
2018-12-27T22:18:13.030Z,20.71
2018-12-27T22:20:44.857Z,20.69
2018-12-27T22:23:17.311Z,20.66
2018-12-27T22:25:49.813Z,20.65
2018-12-27T22:28:22.804Z,20.63
2018-12-27T22:30:54.833Z,20.60
2018-12-27T22:33:26.790Z,20.59
2018-12-27T22:36:01.059Z,20.56
2018-12-27T22:38:35.746Z,20.55
2018-12-27T22:41:07.300Z,20.52
2018-12-27T22:43:39.612Z,20.49
2018-12-27T22:46:11.809Z,20.45
2018-12-27T22:48:43.787Z,20.45
2018-12-27T22:51:15.792Z,20.43
2018-12-27T22:53:47.842Z,20.41
2018-12-27T22:56:19.732Z,20.40
2018-12-27T22:58:51.779Z,20.39
2018-12-27T23:01:24.300Z,20.37
2018-12-27T23:03:56.825Z,20.36
2018-12-27T23:06:28.779Z,20.33
2018-12-27T23:09:00.278Z,20.33
2018-12-27T23:11:32.301Z,20.30
2018-12-27T23:14:04.339Z,20.29
2018-12-27T23:16:36.631Z,20.29
2018-12-27T23:19:08.448Z,20.30
2018-12-27T23:21:40.302Z,20.29
2018-12-27T23:24:12.252Z,20.28
2018-12-27T23:26:44.321Z,20.28
2018-12-27T23:29:16.365Z,20.27
2018-12-27T23:31:48.860Z,20.26
2018-12-27T23:34:20.991Z,20.29
2018-12-27T23:36:53.657Z,20.28
2018-12-27T23:39:24.780Z,20.29
2018-12-27T23:41:57.051Z,20.29
2018-12-27T23:44:29.491Z,20.29
2018-12-27T23:47:01.464Z,20.30
2018-12-27T23:49:33.791Z,20.29
2018-12-27T23:52:05.764Z,20.29
2018-12-27T23:54:37.195Z,20.30
2018-12-27T23:57:09.296Z,20.31
2018-12-27T23:59:41.300Z,20.31
